»·PEaware :: XAVTM KTUS-KPHX

XAVTM :: KTUS-KPHX

FLIGHT INFORMATION

Flight Status: Arrived
Operator: Unknown
More flights by this operator :: More flights under this callsign
Pilot: Norbert F. (45111)
Aircraft: Unknown
(AMF)
More flights by this aircraft type
Origin: KTUS Tucson Intl
United States
Destination: KPHX Phoenix Sky Harbor Intl
United States
More flights between these airports :: More routes between these airports
Route: TUS8 TUS V105 PXR
File this flight plan on PilotEdge
Remarks:
Altitude:
(Current/Filed)
17,000ft
Speed:
(Current/Filed)
160kts
Departed: 09-Sep-23 06:40 PM
Arrived: 09-Sep-23 07:20 PM
Distance/Time
Traveled:
95nm/0:40
Distance/Time
To Go:
Arrived

Flight Plot

Page will automatically refresh every two minutes.

Flight plan parsing failed; only flown route is shown


Map Options




Map Legend


Flown Route
Filed Route
Departure Airport
Arrival Airport
Navaid (VOR, NDB)
Fix

Horizontal Profiles

Position Reports

Time Latitude Longitude Heading Altitude Ground
Speed
09-Sep-23 18:03 32.115156 -110.932794 312 2613ft 0kts
09-Sep-23 18:04 32.115156 -110.932794 312 2613ft 0kts
09-Sep-23 18:05 32.115156 -110.932794 312 2613ft 0kts
09-Sep-23 18:06 32.115156 -110.932794 312 2613ft 0kts
09-Sep-23 18:07 32.115156 -110.932794 312 2613ft 0kts
09-Sep-23 18:08 32.115156 -110.932794 312 2613ft 0kts
09-Sep-23 18:09 32.115156 -110.932794 312 2613ft 0kts
09-Sep-23 18:10 32.115156 -110.932794 312 2613ft 0kts
09-Sep-23 18:11 32.115156 -110.932794 312 2613ft 0kts
09-Sep-23 18:12 32.115156 -110.932794 312 2613ft 0kts
09-Sep-23 18:13 32.115156 -110.932794 312 2613ft 0kts
09-Sep-23 18:14 32.115156 -110.932794 312 2613ft 0kts
09-Sep-23 18:15 32.115156 -110.932794 312 2613ft 0kts
09-Sep-23 18:16 32.115156 -110.932794 312 2613ft 0kts
09-Sep-23 18:17 32.115156 -110.932794 312 2613ft 0kts
09-Sep-23 18:18 32.115156 -110.932794 312 2613ft 0kts
09-Sep-23 18:19 32.115156 -110.932795 312 2613ft 0kts
09-Sep-23 18:20 32.115156 -110.932795 312 2613ft 0kts
09-Sep-23 18:21 32.115156 -110.932795 312 2613ft 0kts
09-Sep-23 18:22 32.115156 -110.932795 312 2613ft 0kts
09-Sep-23 18:23 32.115156 -110.932795 312 2613ft 0kts
09-Sep-23 18:24 32.115156 -110.932795 312 2613ft 0kts
09-Sep-23 18:25 32.115156 -110.932795 312 2613ft 0kts
09-Sep-23 18:26 32.115156 -110.932795 312 2613ft 0kts
09-Sep-23 18:27 32.115156 -110.932795 312 2613ft 0kts
09-Sep-23 18:28 32.115156 -110.932795 312 2613ft 0kts
09-Sep-23 18:29 32.115156 -110.932795 312 2613ft 0kts
09-Sep-23 18:30 32.115156 -110.932795 312 2613ft 0kts
09-Sep-23 18:31 32.115156 -110.932795 312 2613ft 0kts
09-Sep-23 18:32 32.115156 -110.932795 312 2613ft 0kts
09-Sep-23 18:33 32.115103 -110.932927 184 2613ft 0kts
09-Sep-23 18:34 32.113464 -110.933509 182 2615ft 2kts
09-Sep-23 18:35 32.109768 -110.929453 135 2627ft 31kts
09-Sep-23 18:36 32.103673 -110.922294 134 2651ft 9kts
09-Sep-23 18:37 32.102754 -110.922059 229 2651ft 0kts
09-Sep-23 18:38 32.102529 -110.923518 310 2648ft 0kts
09-Sep-23 18:39 32.124585 -110.948510 317 3328ft 207kts
09-Sep-23 18:40 32.178457 -110.936764 56 6121ft 245kts
09-Sep-23 18:41 32.163575 -110.866082 141 7742ft 239kts
09-Sep-23 18:42 32.107594 -110.873831 239 9019ft 233kts
09-Sep-23 18:43 32.094495 -110.945660 261 10491ft 230kts
09-Sep-23 18:44 32.114568 -111.016682 324 11232ft 244kts
09-Sep-23 18:45 32.176703 -111.039345 298 12173ft 244kts
09-Sep-23 18:46 32.202551 -111.108874 282 13306ft 230kts
09-Sep-23 18:47 32.233690 -111.171421 292 14669ft 227kts
09-Sep-23 18:48 32.266019 -111.235000 293 16061ft 228kts
09-Sep-23 18:49 32.296195 -111.301106 287 16926ft 238kts
09-Sep-23 18:50 32.321255 -111.375277 284 16952ft 247kts
09-Sep-23 18:51 32.355971 -111.447200 297 16949ft 257kts
09-Sep-23 18:52 32.394094 -111.518093 308 17027ft 259kts
09-Sep-23 18:53 32.453402 -111.567521 331 17022ft 262kts
09-Sep-23 18:54 32.514759 -111.609805 323 17160ft 251kts
09-Sep-23 18:55 32.573158 -111.656339 324 17134ft 254kts
09-Sep-23 18:56 32.632723 -111.701219 320 17069ft 253kts
09-Sep-23 18:57 32.691665 -111.747238 319 16049ft 253kts
09-Sep-23 18:58 32.749211 -111.797301 322 13696ft 263kts
09-Sep-23 18:59 32.806787 -111.846911 321 11197ft 239kts
09-Sep-23 19:00 32.858127 -111.888863 326 9962ft 212kts
09-Sep-23 19:01 32.911847 -111.912935 11 9673ft 210kts
09-Sep-23 19:02 32.965648 -111.893060 20 8338ft 198kts
09-Sep-23 19:03 33.012209 -111.870802 26 7454ft 162kts
09-Sep-23 19:04 33.059725 -111.843814 21 6519ft 209kts
09-Sep-23 19:05 33.112546 -111.817531 22 6185ft 202kts
09-Sep-23 19:06 33.162493 -111.792117 23 6025ft 192kts
09-Sep-23 19:07 33.210934 -111.767183 22 6042ft 184kts
09-Sep-23 19:08 33.257362 -111.743208 23 6033ft 182kts
09-Sep-23 19:09 33.303325 -111.719671 21 6057ft 180kts
09-Sep-23 19:10 33.348564 -111.694031 26 6056ft 180kts
09-Sep-23 19:11 33.393677 -111.666926 15 6040ft 178kts
09-Sep-23 19:12 33.433949 -111.694411 293 4781ft 186kts
09-Sep-23 19:13 33.434716 -111.751734 257 4245ft 172kts
09-Sep-23 19:14 33.428215 -111.805788 272 4322ft 142kts
09-Sep-23 19:15 33.428491 -111.854171 271 3659ft 151kts
09-Sep-23 19:16 33.428668 -111.903324 270 2788ft 143kts
09-Sep-23 19:17 33.428701 -111.949880 271 2013ft 137kts
09-Sep-23 19:18 33.428831 -111.994263 271 1283ft 130kts
09-Sep-23 19:19 33.428869 -112.014935 269 1116ft 3kts
09-Sep-23 19:20 33.427171 -112.017392 186 1113ft 5kts
09-Sep-23 19:21 33.424400 -112.017424 180 1113ft 0kts
09-Sep-23 19:22 33.424400 -112.017424 180 1113ft 0kts
09-Sep-23 19:23 33.424400 -112.017424 180 1113ft 0kts
09-Sep-23 19:24 33.424400 -112.017424 180 1113ft 0kts
09-Sep-23 19:25 33.424400 -112.017424 180 1113ft 0kts
09-Sep-23 19:26 33.424400 -112.017424 180 1113ft 0kts
09-Sep-23 19:27 33.424400 -112.017424 180 1113ft 0kts
09-Sep-23 19:28 33.424400 -112.017424 180 1113ft 0kts
09-Sep-23 19:29 33.424400 -112.017424 180 1113ft 0kts
09-Sep-23 19:30 33.424400 -112.017424 180 1113ft 0kts
09-Sep-23 19:31 33.424400 -112.017424 180 1113ft 0kts
09-Sep-23 19:32 33.424400 -112.017424 180 1113ft 0kts
09-Sep-23 19:33 33.424400 -112.017424 180 1113ft 0kts

Navigation Log

Ident Type
Flight plan parsing failed, navigation log unavailable